Time;durP1;ratioP1;P1;durP2;ratioP2;P2;SDS_P1;SDS_P2;PMS_P1;PMS_P2;Temp;Humidity;BMP_temperature;BMP_pressure;BME280_temperature;BME280_humidity;BME280_pressure;Samples;Min_cycle;Max_cycle;Signal;HPM_P1;HPM_P2
2021/06/19 00:03:18;;;;;;;18.05;11.85;;;;;;;;;;6999220;28;20544;-85
2021/06/19 00:06:38;;;;;;;18.15;12.55;;;;;;;;;;6999307;28;20095;-85
2021/06/19 00:09:58;;;;;;;18.02;13.25;;;;;;;;;;6979019;28;20049;-84
2021/06/19 00:13:19;;;;;;;17.90;14.25;;;;;;;;;;6998810;28;20137;-85
2021/06/19 00:16:39;;;;;;;21.73;12.90;;;;;;;;;;6999488;28;20056;-84
2021/06/19 00:20:00;;;;;;;20.17;14.40;;;;;;;;;;6999041;28;20147;-84
2021/06/19 00:23:21;;;;;;;19.92;12.68;;;;;;;;;;6998553;28;20056;-84
2021/06/19 00:26:41;;;;;;;23.20;13.82;;;;;;;;;;6998961;28;20045;-84
2021/06/19 00:30:06;;;;;;;19.67;13.50;;;;;;;;;;6998897;28;20044;-84
2021/06/19 00:33:27;;;;;;;22.00;13.52;;;;;;;;;;6992374;28;20379;-83
2021/06/19 00:36:47;;;;;;;20.75;13.15;;;;;;;;;;7008566;28;20495;-83
2021/06/19 00:40:10;;;;;;;19.73;12.65;;;;;;;;;;7004829;28;20102;-84
2021/06/19 00:43:31;;;;;;;19.48;12.63;;;;;;;;;;6987863;28;20048;-84
2021/06/19 00:46:52;;;;;;;17.83;13.07;;;;;;;;;;7005200;28;20045;-83
2021/06/19 00:50:14;;;;;;;15.25;11.98;;;;;;;;;;6979954;28;20048;-84
2021/06/19 00:53:34;;;;;;;19.58;13.50;;;;;;;;;;7012340;28;20036;-84
2021/06/19 00:56:55;;;;;;;19.17;14.07;;;;;;;;;;7003618;28;20071;-85
2021/06/19 01:00:16;;;;;;;17.45;13.43;;;;;;;;;;7007826;28;20040;-85
2021/06/19 01:03:37;;;;;;;16.05;13.93;;;;;;;;;;7007344;28;20036;-85
2021/06/19 01:07:00;;;;;;;19.70;13.90;;;;;;;;;;7002008;28;20105;-87
2021/06/19 01:10:21;;;;;;;22.95;14.32;;;;;;;;;;7021667;28;20053;-86
2021/06/19 01:13:41;;;;;;;18.33;14.70;;;;;;;;;;7011937;28;20055;-86
2021/06/19 01:17:02;;;;;;;22.77;15.73;;;;;;;;;;6996385;28;20058;-86
2021/06/19 01:20:22;;;;;;;21.80;15.75;;;;;;;;;;7021697;28;20501;-87
2021/06/19 01:23:43;;;;;;;22.67;14.88;;;;;;;;;;7020788;28;20045;-86
2021/06/19 01:27:04;;;;;;;18.55;14.27;;;;;;;;;;7112577;22;20142;-81
2021/06/19 01:30:26;;;;;;;20.52;14.70;;;;;;;;;;7115704;27;20046;-81
2021/06/19 01:33:48;;;;;;;20.80;14.52;;;;;;;;;;7118461;27;20522;-82
2021/06/19 01:37:09;;;;;;;20.23;15.15;;;;;;;;;;7102510;27;20496;-82
2021/06/19 01:40:32;;;;;;;19.30;13.32;;;;;;;;;;7118578;27;20050;-81
2021/06/19 01:44:09;;;;;;;19.92;13.55;;;;;;;;;;7092880;27;20054;-82
2021/06/19 01:47:30;;;;;;;22.23;15.23;;;;;;;;;;7076269;27;20077;-82
2021/06/19 01:50:50;;;;;;;17.63;14.52;;;;;;;;;;7097232;27;20121;-81
2021/06/19 01:54:11;;;;;;;20.80;16.77;;;;;;;;;;7117821;27;20038;-82
2021/06/19 01:57:32;;;;;;;21.48;17.10;;;;;;;;;;7094079;27;20097;-82
2021/06/19 02:00:52;;;;;;;24.38;18.67;;;;;;;;;;7104090;27;20047;-81
2021/06/19 02:04:13;;;;;;;21.48;15.88;;;;;;;;;;7089110;27;20047;-82
2021/06/19 02:07:34;;;;;;;24.77;16.45;;;;;;;;;;7089321;27;20070;-81
2021/06/19 02:10:57;;;;;;;22.92;16.52;;;;;;;;;;7109986;27;20061;-82
2021/06/19 02:14:17;;;;;;;28.75;16.15;;;;;;;;;;7095872;27;20078;-82
2021/06/19 02:17:38;;;;;;;21.67;15.23;;;;;;;;;;7088834;28;20047;-82
2021/06/19 02:20:59;;;;;;;19.35;13.82;;;;;;;;;;7072792;27;20046;-82
2021/06/19 02:24:19;;;;;;;18.90;14.60;;;;;;;;;;7066238;27;20036;-82
2021/06/19 02:27:50;;;;;;;20.88;15.15;;;;;;;;;;7079469;28;20051;-82
2021/06/19 02:31:11;;;;;;;21.27;13.50;;;;;;;;;;7102991;27;20050;-81
2021/06/19 02:34:31;;;;;;;19.23;14.25;;;;;;;;;;7069454;28;20059;-81
2021/06/19 02:37:52;;;;;;;24.83;13.80;;;;;;;;;;7078919;28;20047;-81
2021/06/19 02:41:12;;;;;;;24.15;14.88;;;;;;;;;;7107258;27;20035;-81
2021/06/19 02:44:32;;;;;;;19.30;14.25;;;;;;;;;;7117055;27;20566;-81
2021/06/19 02:47:55;;;;;;;20.23;13.43;;;;;;;;;;7114448;27;20047;-81
2021/06/19 02:51:15;;;;;;;26.65;15.27;;;;;;;;;;7105264;27;20046;-81
2021/06/19 02:54:40;;;;;;;15.15;13.38;;;;;;;;;;7100346;27;20050;-81
2021/06/19 02:58:01;;;;;;;24.02;15.00;;;;;;;;;;7107529;27;20072;-81
2021/06/19 03:01:21;;;;;;;17.20;14.80;;;;;;;;;;7120411;27;20047;-81
2021/06/19 03:04:42;;;;;;;17.73;13.35;;;;;;;;;;7093408;28;20085;-81
2021/06/19 03:08:02;;;;;;;19.50;12.45;;;;;;;;;;7107167;27;20058;-82
2021/06/19 03:11:23;;;;;;;16.90;12.48;;;;;;;;;;7107035;27;20512;-82
2021/06/19 03:14:43;;;;;;;21.88;12.27;;;;;;;;;;7120176;27;20047;-82
2021/06/19 03:18:05;;;;;;;17.48;12.60;;;;;;;;;;7108060;27;20464;-81
2021/06/19 03:21:25;;;;;;;16.70;11.25;;;;;;;;;;7107629;27;20058;-82
2021/06/19 03:24:45;;;;;;;17.58;11.73;;;;;;;;;;7101304;27;20042;-82
2021/06/19 03:28:06;;;;;;;17.30;12.95;;;;;;;;;;7120959;27;20054;-82
2021/06/19 03:31:28;;;;;;;17.98;12.60;;;;;;;;;;7107128;27;20103;-82
2021/06/19 03:34:48;;;;;;;20.92;11.77;;;;;;;;;;7121428;27;20043;-81
2021/06/19 03:38:09;;;;;;;19.00;12.60;;;;;;;;;;7099787;27;20063;-82
2021/06/19 03:41:29;;;;;;;16.05;12.95;;;;;;;;;;7086033;27;20086;-81
2021/06/19 03:44:50;;;;;;;14.65;12.68;;;;;;;;;;7083297;28;20042;-81
2021/06/19 03:48:10;;;;;;;21.55;12.55;;;;;;;;;;7086952;28;20048;-81
2021/06/19 03:51:31;;;;;;;28.27;14.05;;;;;;;;;;7091524;27;20074;-81
2021/06/19 03:54:52;;;;;;;25.88;14.35;;;;;;;;;;7089389;27;20046;-81
2021/06/19 03:58:13;;;;;;;23.83;14.27;;;;;;;;;;7092226;27;20055;-81
2021/06/19 04:01:33;;;;;;;19.35;13.98;;;;;;;;;;7106019;27;20047;-81
2021/06/19 04:04:54;;;;;;;19.25;13.38;;;;;;;;;;7102939;27;20056;-82
2021/06/19 04:08:14;;;;;;;23.30;16.35;;;;;;;;;;7108673;27;20129;-81
2021/06/19 04:11:35;;;;;;;26.65;15.40;;;;;;;;;;7085932;27;20042;-83
2021/06/19 04:14:55;;;;;;;18.42;14.15;;;;;;;;;;7091295;27;20034;-81
2021/06/19 04:18:15;;;;;;;19.23;13.32;;;;;;;;;;7098670;27;20070;-82
2021/06/19 04:21:36;;;;;;;24.42;11.82;;;;;;;;;;7085416;27;20053;-83
2021/06/19 04:24:56;;;;;;;28.08;12.07;;;;;;;;;;7081224;27;20075;-82
2021/06/19 04:28:17;;;;;;;17.73;11.60;;;;;;;;;;7093818;27;20114;-82
2021/06/19 04:31:37;;;;;;;18.60;14.20;;;;;;;;;;7091634;27;20142;-83
2021/06/19 04:34:57;;;;;;;25.35;12.82;;;;;;;;;;7092700;27;20043;-81
2021/06/19 04:38:18;;;;;;;22.58;13.05;;;;;;;;;;7112334;27;20523;-81
2021/06/19 04:45:13;;;;;;;17.88;12.43;;;;;;;;;;7097775;27;20056;-82
2021/06/19 04:48:33;;;;;;;22.02;13.48;;;;;;;;;;7090786;27;20055;-81
2021/06/19 04:51:53;;;;;;;20.67;13.05;;;;;;;;;;7092183;27;20457;-81
2021/06/19 04:55:16;;;;;;;28.77;12.32;;;;;;;;;;7105571;27;20035;-81
2021/06/19 04:58:36;;;;;;;27.33;12.75;;;;;;;;;;7108192;27;20371;-82
2021/06/19 05:01:57;;;;;;;27.67;11.05;;;;;;;;;;7108226;27;20506;-82
2021/06/19 05:05:17;;;;;;;22.38;10.35;;;;;;;;;;7103227;27;20077;-82
2021/06/19 05:08:39;;;;;;;16.30;8.65;;;;;;;;;;7096489;27;20043;-82
2021/06/19 05:12:00;;;;;;;15.38;7.95;;;;;;;;;;7096410;27;20047;-82
2021/06/19 05:15:26;;;;;;;13.43;8.30;;;;;;;;;;7095790;27;20100;-82
2021/06/19 05:18:47;;;;;;;13.77;7.38;;;;;;;;;;7093280;27;20069;-82
2021/06/19 05:22:07;;;;;;;16.88;7.20;;;;;;;;;;7085333;27;20039;-81
2021/06/19 05:25:28;;;;;;;15.35;7.10;;;;;;;;;;7081423;27;20043;-81
2021/06/19 05:28:48;;;;;;;13.65;7.18;;;;;;;;;;7096097;27;20051;-81
2021/06/19 05:32:09;;;;;;;10.32;6.72;;;;;;;;;;7107353;27;20495;-81
2021/06/19 05:35:30;;;;;;;11.35;6.57;;;;;;;;;;7099712;27;20466;-83
2021/06/19 05:38:50;;;;;;;13.82;6.55;;;;;;;;;;7094828;27;20048;-82
2021/06/19 05:42:11;;;;;;;11.95;6.18;;;;;;;;;;7086884;27;20047;-83
2021/06/19 05:45:31;;;;;;;8.88;6.03;;;;;;;;;;7107183;27;20046;-82
2021/06/19 05:48:56;;;;;;;9.93;6.25;;;;;;;;;;7101701;27;20047;-86
2021/06/19 05:52:18;;;;;;;12.32;6.13;;;;;;;;;;7088929;27;20046;-86
2021/06/19 05:55:39;;;;;;;9.25;5.93;;;;;;;;;;7086927;27;20043;-87
2021/06/19 05:59:00;;;;;;;6.45;5.80;;;;;;;;;;7099102;27;20050;-86
2021/06/19 06:02:21;;;;;;;9.73;5.35;;;;;;;;;;7086617;27;20484;-86
2021/06/19 06:05:41;;;;;;;10.00;5.60;;;;;;;;;;7095647;27;20058;-87
2021/06/19 06:09:03;;;;;;;7.90;5.80;;;;;;;;;;7090043;27;20074;-86
2021/06/19 06:12:23;;;;;;;12.23;5.55;;;;;;;;;;7102620;27;20069;-88
2021/06/19 06:15:44;;;;;;;7.90;5.47;;;;;;;;;;7096887;27;20083;-84
2021/06/19 06:19:04;;;;;;;11.93;5.30;;;;;;;;;;7090805;27;20047;-85
2021/06/19 06:22:24;;;;;;;6.32;5.10;;;;;;;;;;7091779;27;20434;-84
2021/06/19 06:25:45;;;;;;;6.25;5.00;;;;;;;;;;7094325;27;20076;-84
2021/06/19 06:29:05;;;;;;;5.60;5.07;;;;;;;;;;7114782;27;20042;-86
2021/06/19 06:32:26;;;;;;;8.25;5.50;;;;;;;;;;7088388;27;20418;-87
2021/06/19 06:35:47;;;;;;;6.57;5.00;;;;;;;;;;7099099;27;20552;-88
2021/06/19 06:39:07;;;;;;;5.70;4.65;;;;;;;;;;7096160;27;20586;-87
2021/06/19 06:42:33;;;;;;;5.85;5.03;;;;;;;;;;7103135;27;20080;-88
2021/06/19 06:45:55;;;;;;;5.28;4.78;;;;;;;;;;7072156;27;20047;-89
2021/06/19 06:49:15;;;;;;;5.60;4.70;;;;;;;;;;7102621;27;20089;-87
2021/06/19 06:52:37;;;;;;;6.80;5.05;;;;;;;;;;7094276;27;20055;-88
2021/06/19 06:55:57;;;;;;;5.50;4.60;;;;;;;;;;7101702;27;20120;-88
2021/06/19 06:59:17;;;;;;;5.32;4.78;;;;;;;;;;7084372;27;20126;-88
2021/06/19 07:02:41;;;;;;;5.35;4.80;;;;;;;;;;7089766;27;20051;-87
2021/06/19 07:06:02;;;;;;;5.95;4.90;;;;;;;;;;7097086;27;20071;-88
2021/06/19 07:09:22;;;;;;;6.22;4.65;;;;;;;;;;7097083;27;20149;-86
2021/06/19 07:12:45;;;;;;;5.80;4.63;;;;;;;;;;7100035;27;20138;-85
2021/06/19 07:16:06;;;;;;;5.05;4.20;;;;;;;;;;7080372;27;20062;-85
2021/06/19 07:19:27;;;;;;;5.15;4.57;;;;;;;;;;7100157;27;20035;-85
2021/06/19 07:22:48;;;;;;;6.80;4.53;;;;;;;;;;7103068;27;20039;-85
2021/06/19 07:26:08;;;;;;;11.00;4.40;;;;;;;;;;7104417;27;20043;-84
2021/06/19 07:29:29;;;;;;;4.85;4.20;;;;;;;;;;7105033;27;20043;-84
2021/06/19 07:32:50;;;;;;;6.15;4.72;;;;;;;;;;7100953;27;20058;-85
2021/06/19 07:36:10;;;;;;;4.88;4.20;;;;;;;;;;7098662;27;20045;-85
2021/06/19 07:39:30;;;;;;;6.53;4.32;;;;;;;;;;7084353;27;20043;-85
2021/06/19 07:42:51;;;;;;;5.82;4.57;;;;;;;;;;7095189;27;20054;-86
2021/06/19 07:46:11;;;;;;;4.60;4.20;;;;;;;;;;7092420;27;20078;-84
2021/06/19 07:49:32;;;;;;;6.78;4.20;;;;;;;;;;7103667;27;20127;-83
2021/06/19 07:52:52;;;;;;;5.05;4.30;;;;;;;;;;7099531;27;20046;-84
2021/06/19 07:56:13;;;;;;;6.65;4.47;;;;;;;;;;7100851;27;20043;-85
2021/06/19 07:59:34;;;;;;;5.88;4.07;;;;;;;;;;7103607;27;20068;-84
2021/06/19 08:02:55;;;;;;;6.47;3.88;;;;;;;;;;7098441;27;20058;-87
2021/06/19 08:06:15;;;;;;;6.63;4.13;;;;;;;;;;7093750;27;20084;-85
2021/06/19 08:09:36;;;;;;;4.30;3.85;;;;;;;;;;7107143;27;20055;-86
2021/06/19 08:12:57;;;;;;;4.80;4.25;;;;;;;;;;7106852;27;20054;-82
2021/06/19 08:16:18;;;;;;;5.97;4.88;;;;;;;;;;7107009;27;20095;-81
2021/06/19 08:19:39;;;;;;;8.48;5.80;;;;;;;;;;7102393;27;20049;-81
2021/06/19 08:23:00;;;;;;;9.23;5.50;;;;;;;;;;7091038;27;20067;-81
2021/06/19 08:26:20;;;;;;;6.82;5.35;;;;;;;;;;7087168;27;20039;-81
2021/06/19 08:29:41;;;;;;;7.45;4.95;;;;;;;;;;7084313;27;20054;-81
2021/06/19 08:33:02;;;;;;;11.13;5.00;;;;;;;;;;7098095;27;20050;-81
2021/06/19 08:36:23;;;;;;;9.50;5.78;;;;;;;;;;7104795;27;20475;-81
2021/06/19 08:39:43;;;;;;;8.07;5.55;;;;;;;;;;7119294;27;20092;-81
2021/06/19 08:43:04;;;;;;;12.77;5.68;;;;;;;;;;7099235;27;20108;-81
2021/06/19 08:46:24;;;;;;;7.70;5.30;;;;;;;;;;7092675;27;20047;-81
2021/06/19 08:49:45;;;;;;;8.50;5.60;;;;;;;;;;7092043;27;20122;-81
2021/06/19 08:53:06;;;;;;;10.30;6.18;;;;;;;;;;7088466;27;20045;-81
2021/06/19 08:56:26;;;;;;;10.30;6.50;;;;;;;;;;7094485;27;20064;-82
2021/06/19 08:59:48;;;;;;;10.48;5.72;;;;;;;;;;7100522;27;20043;-82
2021/06/19 09:03:24;;;;;;;10.88;5.93;;;;;;;;;;7100159;27;20046;-82
2021/06/19 09:06:44;;;;;;;11.60;6.60;;;;;;;;;;7112424;27;20046;-82
2021/06/19 09:10:25;;;;;;;8.70;7.78;;;;;;;;;;7105126;27;20039;-81
2021/06/19 09:13:58;;;;;;;15.07;7.72;;;;;;;;;;7080026;27;20039;-81
2021/06/19 09:17:20;;;;;;;10.48;7.00;;;;;;;;;;7064034;27;20059;-81
2021/06/19 09:20:54;;;;;;;11.30;7.18;;;;;;;;;;7106120;27;20053;-81
2021/06/19 09:24:49;;;;;;;12.63;8.45;;;;;;;;;;7075190;27;20042;-81
2021/06/19 09:28:10;;;;;;;15.77;9.88;;;;;;;;;;7116460;27;20096;-82
2021/06/19 09:31:38;;;;;;;15.18;8.88;;;;;;;;;;7096645;27;20125;-81
2021/06/19 09:35:24;;;;;;;9.90;7.35;;;;;;;;;;7112925;27;20145;-81
2021/06/19 09:39:03;;;;;;;13.15;7.10;;;;;;;;;;7107589;27;20404;-82
2021/06/19 09:42:24;;;;;;;12.75;7.18;;;;;;;;;;7089605;27;20071;-82
2021/06/19 09:46:04;;;;;;;10.35;6.65;;;;;;;;;;7096237;27;20050;-81
2021/06/19 09:49:33;;;;;;;10.85;6.18;;;;;;;;;;7100054;27;20082;-81
2021/06/19 09:52:53;;;;;;;10.77;6.20;;;;;;;;;;7101475;27;20047;-81
2021/06/19 09:56:16;;;;;;;8.02;6.20;;;;;;;;;;7094060;27;20078;-81
2021/06/19 09:59:38;;;;;;;8.43;6.28;;;;;;;;;;7098912;27;20054;-82
2021/06/19 10:03:04;;;;;;;7.72;6.18;;;;;;;;;;7104723;27;20480;-80
2021/06/19 10:06:26;;;;;;;7.72;5.82;;;;;;;;;;7082139;27;20444;-80
2021/06/19 10:09:51;;;;;;;17.25;8.90;;;;;;;;;;7084674;27;20039;-79
2021/06/19 10:13:13;;;;;;;12.90;8.50;;;;;;;;;;7099627;27;20043;-79
2021/06/19 10:16:34;;;;;;;16.77;8.60;;;;;;;;;;7094084;27;20047;-79
2021/06/19 10:19:55;;;;;;;16.10;10.45;;;;;;;;;;7103909;27;20068;-79
2021/06/19 10:23:16;;;;;;;19.15;10.20;;;;;;;;;;7074716;27;20082;-79
2021/06/19 10:26:40;;;;;;;15.77;11.45;;;;;;;;;;7080407;27;20055;-79
2021/06/19 10:30:03;;;;;;;24.02;11.95;;;;;;;;;;7081518;27;20043;-79
2021/06/19 10:33:35;;;;;;;19.60;12.63;;;;;;;;;;7091743;27;20524;-80
2021/06/19 10:36:58;;;;;;;22.15;13.43;;;;;;;;;;7091114;27;20039;-80
2021/06/19 10:40:23;;;;;;;18.08;13.43;;;;;;;;;;7090565;27;20044;-79
2021/06/19 10:43:48;;;;;;;17.70;10.63;;;;;;;;;;7096021;27;20058;-80
2021/06/19 10:47:09;;;;;;;16.52;11.05;;;;;;;;;;7099998;27;20043;-80
2021/06/19 10:50:30;;;;;;;19.40;9.50;;;;;;;;;;7097747;27;20096;-80
2021/06/19 10:54:14;;;;;;;12.52;9.00;;;;;;;;;;7092251;27;20399;-80
2021/06/19 10:57:52;;;;;;;18.48;10.80;;;;;;;;;;7091462;27;20051;-80
2021/06/19 11:01:31;;;;;;;17.52;8.85;;;;;;;;;;7103350;27;20050;-81
2021/06/19 11:04:51;;;;;;;19.00;9.20;;;;;;;;;;7096171;27;20046;-80
2021/06/19 11:08:15;;;;;;;18.35;10.02;;;;;;;;;;7080888;27;20047;-80
2021/06/19 11:11:55;;;;;;;12.73;10.18;;;;;;;;;;7105315;27;20063;-80
2021/06/19 11:15:33;;;;;;;13.13;9.00;;;;;;;;;;7075542;27;20067;-80
2021/06/19 11:18:54;;;;;;;16.73;8.93;;;;;;;;;;7088332;27;20044;-80
2021/06/19 11:22:24;;;;;;;12.75;9.55;;;;;;;;;;7086847;27;20052;-80
2021/06/19 11:25:53;;;;;;;16.00;10.65;;;;;;;;;;7136529;27;20069;-81
2021/06/19 11:29:38;;;;;;;14.60;9.63;;;;;;;;;;7117410;27;20038;-83
2021/06/19 11:33:24;;;;;;;14.13;9.02;;;;;;;;;;7090866;27;20081;-83
2021/06/19 11:36:57;;;;;;;13.98;9.55;;;;;;;;;;7098177;27;20035;-83
2021/06/19 11:40:36;;;;;;;13.82;8.95;;;;;;;;;;7081311;27;20050;-83
2021/06/19 11:43:57;;;;;;;15.32;9.95;;;;;;;;;;7095881;27;20114;-82
2021/06/19 11:47:17;;;;;;;28.08;13.48;;;;;;;;;;7070625;27;20062;-82
2021/06/19 11:50:43;;;;;;;16.95;9.80;;;;;;;;;;7099315;27;20043;-83
2021/06/19 11:54:06;;;;;;;14.80;9.43;;;;;;;;;;7089190;27;20438;-84
2021/06/19 11:57:28;;;;;;;17.02;10.90;;;;;;;;;;7097092;27;20046;-83
2021/06/19 12:00:53;;;;;;;13.88;9.75;;;;;;;;;;7105970;27;20055;-83
2021/06/19 12:04:22;;;;;;;17.73;10.85;;;;;;;;;;7096388;27;20042;-81
2021/06/19 12:07:46;;;;;;;13.50;10.02;;;;;;;;;;7099578;27;20047;-81
2021/06/19 12:11:06;;;;;;;16.40;9.88;;;;;;;;;;7104860;27;20067;-81
2021/06/19 12:14:37;;;;;;;19.33;14.43;;;;;;;;;;7076034;27;20046;-82
2021/06/19 12:18:00;;;;;;;18.17;12.40;;;;;;;;;;7109820;27;20042;-82
2021/06/19 12:21:20;;;;;;;15.13;10.23;;;;;;;;;;7076197;27;21183;-82
2021/06/19 12:24:46;;;;;;;13.90;9.40;;;;;;;;;;7105560;27;20046;-82
2021/06/19 12:28:19;;;;;;;17.60;10.68;;;;;;;;;;7102733;27;20070;-82
2021/06/19 12:31:40;;;;;;;16.80;10.18;;;;;;;;;;7094940;27;20062;-82
2021/06/19 12:35:10;;;;;;;18.33;10.25;;;;;;;;;;7098974;27;20070;-82
2021/06/19 12:38:31;;;;;;;18.60;9.00;;;;;;;;;;7099799;27;20058;-80
2021/06/19 12:41:51;;;;;;;12.90;8.77;;;;;;;;;;7110795;27;20074;-80
2021/06/19 12:45:14;;;;;;;13.65;9.45;;;;;;;;;;7081242;27;20043;-80
2021/06/19 12:48:39;;;;;;;13.88;9.30;;;;;;;;;;7099966;27;20439;-80
2021/06/19 12:52:03;;;;;;;16.35;10.27;;;;;;;;;;7091967;27;20109;-80
2021/06/19 12:55:24;;;;;;;18.75;10.32;;;;;;;;;;7092777;27;20049;-80
2021/06/19 12:58:49;;;;;;;15.32;10.63;;;;;;;;;;7072157;27;20051;-80
2021/06/19 13:02:09;;;;;;;24.63;10.35;;;;;;;;;;7109595;27;20065;-81
2021/06/19 13:05:30;;;;;;;15.35;9.32;;;;;;;;;;7099202;27;20070;-81
2021/06/19 13:08:55;;;;;;;21.25;10.05;;;;;;;;;;7111730;27;20490;-81
2021/06/19 13:12:20;;;;;;;12.68;8.75;;;;;;;;;;7091549;27;20048;-82
2021/06/19 13:15:58;;;;;;;22.98;9.65;;;;;;;;;;7098354;27;20047;-81
2021/06/19 13:19:19;;;;;;;22.80;10.45;;;;;;;;;;7100121;27;20050;-82
2021/06/19 13:22:40;;;;;;;21.33;9.18;;;;;;;;;;7089024;27;20046;-82
2021/06/19 13:26:10;;;;;;;26.58;10.00;;;;;;;;;;7251139;22;20079;-86
2021/06/19 13:29:31;;;;;;;21.20;10.10;;;;;;;;;;6988889;28;20049;-87
2021/06/19 13:32:52;;;;;;;25.40;10.50;;;;;;;;;;6990333;28;20058;-86
2021/06/19 13:36:23;;;;;;;16.88;9.57;;;;;;;;;;6995076;28;20044;-87
2021/06/19 13:39:48;;;;;;;17.70;8.95;;;;;;;;;;6979512;28;20144;-87
2021/06/19 13:43:09;;;;;;;37.45;10.15;;;;;;;;;;6988089;28;20044;-84
2021/06/19 13:46:30;;;;;;;29.40;9.40;;;;;;;;;;6982583;28;20132;-86
2021/06/19 13:49:50;;;;;;;19.17;8.75;;;;;;;;;;6984116;28;20171;-85
2021/06/19 13:53:15;;;;;;;15.82;8.73;;;;;;;;;;6990376;28;20044;-86
2021/06/19 13:56:36;;;;;;;11.85;9.27;;;;;;;;;;6977483;28;20127;-87
2021/06/19 13:59:57;;;;;;;13.63;10.10;;;;;;;;;;6975760;28;20051;-87
2021/06/19 14:03:17;;;;;;;15.20;9.23;;;;;;;;;;6973964;28;20048;-86
2021/06/19 14:06:38;;;;;;;20.90;11.20;;;;;;;;;;6975549;28;20522;-86
2021/06/19 14:09:59;;;;;;;14.75;10.48;;;;;;;;;;6993419;28;20056;-86
2021/06/19 14:13:19;;;;;;;14.10;9.50;;;;;;;;;;6970778;28;20072;-86
2021/06/19 14:17:00;;;;;;;18.20;10.02;;;;;;;;;;6991367;28;20040;-86
2021/06/19 14:20:20;;;;;;;12.85;9.23;;;;;;;;;;6879137;28;20062;-84
2021/06/19 14:23:41;;;;;;;12.13;8.68;;;;;;;;;;6881646;28;20046;-86
2021/06/19 14:27:12;;;;;;;18.20;9.63;;;;;;;;;;6882664;28;20122;-84
2021/06/19 14:30:32;;;;;;;17.98;9.02;;;;;;;;;;6873790;28;20050;-85
2021/06/19 14:33:53;;;;;;;25.92;10.13;;;;;;;;;;6880727;28;20077;-85
2021/06/19 14:37:15;;;;;;;23.02;9.07;;;;;;;;;;6882150;28;20053;-85
2021/06/19 14:40:37;;;;;;;17.63;9.10;;;;;;;;;;6882079;28;20042;-85
2021/06/19 14:43:57;;;;;;;14.82;9.10;;;;;;;;;;6880504;28;20435;-85
2021/06/19 14:47:18;;;;;;;15.63;8.93;;;;;;;;;;6879766;28;20042;-85
2021/06/19 14:50:39;;;;;;;13.98;9.05;;;;;;;;;;6881789;28;20042;-85
2021/06/19 14:53:59;;;;;;;19.10;8.95;;;;;;;;;;6881825;28;20046;-86
2021/06/19 14:57:20;;;;;;;10.75;7.80;;;;;;;;;;6937488;28;20041;-86
2021/06/19 15:00:41;;;;;;;13.05;8.27;;;;;;;;;;6971981;28;20056;-85
2021/06/19 15:04:01;;;;;;;12.18;8.45;;;;;;;;;;6971661;28;20087;-86
2021/06/19 15:07:22;;;;;;;14.57;8.48;;;;;;;;;;6969650;28;20133;-86
2021/06/19 15:10:43;;;;;;;9.60;7.82;;;;;;;;;;6975874;28;20051;-84
2021/06/19 15:14:03;;;;;;;18.98;9.07;;;;;;;;;;6993644;28;20079;-87
2021/06/19 15:17:24;;;;;;;12.13;8.88;;;;;;;;;;6980678;28;20103;-87
2021/06/19 15:20:44;;;;;;;18.27;8.25;;;;;;;;;;6994837;28;20490;-87
2021/06/19 15:24:05;;;;;;;10.30;7.70;;;;;;;;;;6977015;28;20379;-88
2021/06/19 15:27:27;;;;;;;9.57;7.97;;;;;;;;;;6983271;28;20163;-88
2021/06/19 15:30:48;;;;;;;9.38;8.15;;;;;;;;;;6993747;28;20059;-87
2021/06/19 15:34:08;;;;;;;11.45;8.23;;;;;;;;;;6983134;28;20127;-86
2021/06/19 15:37:28;;;;;;;11.05;8.35;;;;;;;;;;6991421;28;20104;-85
2021/06/19 15:40:49;;;;;;;14.43;8.00;;;;;;;;;;6992021;28;20041;-87
2021/06/19 15:44:09;;;;;;;13.85;7.57;;;;;;;;;;6987359;28;20124;-86
2021/06/19 15:47:30;;;;;;;9.73;8.10;;;;;;;;;;6983654;28;20105;-86
2021/06/19 15:50:53;;;;;;;10.40;7.45;;;;;;;;;;6993589;28;20051;-85
2021/06/19 15:54:14;;;;;;;10.25;8.18;;;;;;;;;;6979479;28;20056;-86
2021/06/19 15:57:34;;;;;;;10.00;7.20;;;;;;;;;;6981694;28;20072;-84
2021/06/19 16:00:54;;;;;;;11.48;7.55;;;;;;;;;;6987395;28;20076;-87
2021/06/19 16:04:15;;;;;;;11.02;7.32;;;;;;;;;;6977058;28;20091;-86
2021/06/19 16:07:35;;;;;;;11.80;7.80;;;;;;;;;;6982415;28;20072;-84
2021/06/19 16:10:56;;;;;;;9.30;7.20;;;;;;;;;;6979632;28;20044;-86
2021/06/19 16:14:16;;;;;;;11.77;7.82;;;;;;;;;;6987163;28;20037;-86
2021/06/19 16:17:37;;;;;;;7.97;7.18;;;;;;;;;;6980167;28;20478;-84
2021/06/19 16:20:58;;;;;;;8.82;7.93;;;;;;;;;;6984511;28;20052;-85
2021/06/19 16:24:22;;;;;;;9.52;7.53;;;;;;;;;;6980752;28;20052;-86
2021/06/19 16:27:43;;;;;;;11.90;7.88;;;;;;;;;;6981055;28;20397;-85
2021/06/19 16:31:04;;;;;;;10.05;7.57;;;;;;;;;;6982954;28;20080;-85
2021/06/19 16:34:24;;;;;;;8.10;7.07;;;;;;;;;;6991315;28;20049;-85
2021/06/19 16:37:45;;;;;;;7.97;7.18;;;;;;;;;;6987114;28;20053;-85
2021/06/19 16:41:09;;;;;;;8.32;7.53;;;;;;;;;;6991089;28;20076;-87
2021/06/19 16:44:30;;;;;;;8.65;7.47;;;;;;;;;;6978838;28;20482;-85
2021/06/19 16:47:51;;;;;;;13.52;7.68;;;;;;;;;;6993493;28;20114;-86
2021/06/19 16:51:11;;;;;;;8.23;6.90;;;;;;;;;;6979454;28;20052;-88
2021/06/19 16:54:31;;;;;;;7.45;6.57;;;;;;;;;;6994962;28;20048;-86
2021/06/19 16:57:52;;;;;;;7.93;7.18;;;;;;;;;;6967204;28;20131;-87
2021/06/19 17:01:14;;;;;;;7.63;6.82;;;;;;;;;;6982189;28;20037;-86
2021/06/19 17:04:35;;;;;;;7.75;7.05;;;;;;;;;;6997391;28;20094;-86
2021/06/19 17:07:57;;;;;;;9.00;6.75;;;;;;;;;;6983429;28;20056;-84
2021/06/19 17:11:17;;;;;;;8.00;7.10;;;;;;;;;;6997099;28;20242;-85
2021/06/19 17:14:38;;;;;;;8.65;7.00;;;;;;;;;;6996475;28;20058;-85
2021/06/19 17:17:58;;;;;;;9.20;7.00;;;;;;;;;;6995474;28;20144;-84
2021/06/19 17:21:19;;;;;;;8.98;7.00;;;;;;;;;;6971825;28;20519;-86
2021/06/19 17:24:39;;;;;;;8.68;6.97;;;;;;;;;;6976065;28;20098;-85
2021/06/19 17:28:00;;;;;;;7.80;7.03;;;;;;;;;;6996917;28;20143;-86
2021/06/19 17:31:20;;;;;;;8.02;7.07;;;;;;;;;;6997180;28;20059;-86
2021/06/19 17:34:41;;;;;;;8.27;7.20;;;;;;;;;;6983780;28;20071;-86
2021/06/19 17:38:01;;;;;;;7.22;6.50;;;;;;;;;;6986148;28;20139;-84
2021/06/19 17:41:22;;;;;;;9.63;7.28;;;;;;;;;;6990158;28;20083;-84
2021/06/19 17:44:42;;;;;;;7.95;6.57;;;;;;;;;;6991296;28;20056;-85
2021/06/19 17:48:03;;;;;;;8.50;6.70;;;;;;;;;;6996023;28;20044;-85
2021/06/19 17:51:24;;;;;;;8.10;6.82;;;;;;;;;;6987613;28;20136;-85
2021/06/19 17:54:48;;;;;;;9.70;6.70;;;;;;;;;;6986865;28;20513;-85
2021/06/19 17:58:08;;;;;;;10.98;7.47;;;;;;;;;;6980114;28;20040;-86
2021/06/19 18:01:29;;;;;;;10.50;7.10;;;;;;;;;;6994556;28;20123;-85
2021/06/19 18:04:49;;;;;;;7.85;6.65;;;;;;;;;;6989748;28;20102;-85
2021/06/19 18:08:10;;;;;;;11.00;7.63;;;;;;;;;;6991541;28;20370;-85
2021/06/19 18:11:32;;;;;;;11.63;6.97;;;;;;;;;;6984522;28;20040;-86
2021/06/19 18:14:52;;;;;;;9.77;6.75;;;;;;;;;;6974273;28;20044;-85
2021/06/19 18:18:16;;;;;;;10.35;6.72;;;;;;;;;;6995768;28;20080;-84
2021/06/19 18:21:37;;;;;;;10.48;6.97;;;;;;;;;;6992830;28;20044;-82
2021/06/19 18:24:57;;;;;;;7.78;6.85;;;;;;;;;;6992799;28;20044;-82
2021/06/19 18:28:20;;;;;;;6.72;5.95;;;;;;;;;;6993901;28;20511;-82
2021/06/19 18:31:41;;;;;;;6.70;6.05;;;;;;;;;;6993972;28;20800;-82
2021/06/19 18:35:03;;;;;;;7.72;6.18;;;;;;;;;;6991386;28;20053;-82
2021/06/19 18:38:23;;;;;;;8.55;5.47;;;;;;;;;;6991321;28;20048;-82
2021/06/19 18:41:44;;;;;;;7.38;5.80;;;;;;;;;;6991140;28;20143;-82
2021/06/19 18:45:05;;;;;;;8.95;6.22;;;;;;;;;;6990575;28;20049;-83
2021/06/19 18:48:26;;;;;;;7.43;5.60;;;;;;;;;;6991059;28;20037;-82
2021/06/19 18:51:46;;;;;;;10.23;5.50;;;;;;;;;;6982514;28;20056;-86
2021/06/19 18:55:08;;;;;;;26.58;6.25;;;;;;;;;;6979978;28;20119;-85
2021/06/19 18:58:32;;;;;;;13.90;5.80;;;;;;;;;;6988396;28;20044;-85
2021/06/19 19:01:53;;;;;;;17.55;5.60;;;;;;;;;;6987706;28;20457;-85
2021/06/19 19:05:13;;;;;;;5.70;4.43;;;;;;;;;;6989860;28;20497;-85
2021/06/19 19:08:34;;;;;;;13.10;4.97;;;;;;;;;;6981846;28;20041;-84
2021/06/19 19:11:54;;;;;;;9.63;4.25;;;;;;;;;;6988856;28;20062;-85
2021/06/19 19:15:20;;;;;;;13.52;4.00;;;;;;;;;;6982434;28;20098;-85
2021/06/19 19:18:41;;;;;;;11.27;3.90;;;;;;;;;;6983791;28;20056;-85
2021/06/19 19:22:02;;;;;;;8.80;3.78;;;;;;;;;;6984684;28;20055;-85
2021/06/19 19:25:22;;;;;;;8.48;4.13;;;;;;;;;;6988565;28;20406;-85
2021/06/19 19:28:43;;;;;;;9.30;3.55;;;;;;;;;;6993618;28;20128;-85
2021/06/19 19:32:08;;;;;;;11.45;4.00;;;;;;;;;;6993555;28;20139;-85
2021/06/19 19:35:28;;;;;;;11.40;3.70;;;;;;;;;;6978877;28;20378;-83
2021/06/19 19:38:49;;;;;;;6.90;3.90;;;;;;;;;;6993055;28;20522;-84
2021/06/19 19:42:10;;;;;;;12.18;4.53;;;;;;;;;;6995197;28;20052;-82
2021/06/19 19:45:30;;;;;;;15.85;4.05;;;;;;;;;;6999097;28;20036;-82
2021/06/19 19:48:51;;;;;;;11.60;4.10;;;;;;;;;;6986773;28;20132;-82
2021/06/19 19:52:12;;;;;;;8.00;4.22;;;;;;;;;;6988717;28;20060;-83
2021/06/19 19:55:33;;;;;;;11.13;4.32;;;;;;;;;;6985115;28;20132;-82
2021/06/19 19:58:54;;;;;;;7.28;4.13;;;;;;;;;;6977706;28;20045;-85